Beltdiep — PBYF — position and weather

sailwx.info

Track history (hours):
 
Tides and Currents Weather Stations Pressure Air Temp Water Temp Dewpoint Dewpoint Depression Visibility Wind Speed Wind Dir Waves Ship Positions

Beltdiep

Last reported at 2014-Nov-17 21:18 UTC. Time now 2014-Nov-26 04:13 UTC.
Position N 38°09' W 009°39'.
Warning: this ship's position is 8 days out of date.

Length 107 m; draft 5.3 m.

Type: Cargo ship. MMSI: 246671000.

Date/timePositionNaut miles runAvg speedWind from/ knotsBaromVisibWave heightAir tempDewpointWater temp
2014-Nov-17 21:18N 38°09' W 009°39'7 9.6
2014-Nov-17 20:32N 38°02' W 009°38'1010.0
2014-Nov-17 19:31N 37°52' W 009°35'10 9.9
2014-Nov-17 18:32N 37°43' W 009°32'71 8.9
2014-Nov-17 10:33N 36°41' W 008°49'13 9.7
2014-Nov-17 09:11N 36°38' W 008°33'156 9.9
2014-Nov-16 17:26N 36°01' W 005°25'6 7.2
2014-Nov-16 16:33N 36°03' W 005°17'  
2014-Nov-12 14:31N 38°14' E 012°57'  
2014-Nov-10 09:33N 36°50' E 023°34'3811.2
2014-Nov-10 06:09N 37°23' E 023°60'711.0
2014-Nov-10 05:30N 37°28' E 024°06'2311.0
2014-Nov-10 03:25N 37°47' E 024°23'27210.5
2014-Nov-09 01:33N 40°54' E 028°38'1111.3
2014-Nov-09 00:33N 40°56' E 028°52'3 3.3
2014-Nov-08 23:30N 40°58' E 028°56'0 0.0
2014-Nov-08 22:30N 40°58' E 028°56'0 0.0
2014-Nov-08 21:17N 40°58' E 028°56'0 0.0
2014-Nov-08 20:29N 40°58' E 028°56'0 0.1
2014-Nov-08 19:32N 40°58' E 028°56'0 0.0
2014-Nov-08 18:31N 40°58' E 028°56'0 0.0
2014-Nov-08 17:13N 40°58' E 028°56'0 0.0
2014-Nov-08 15:24N 40°58' E 028°56'1 0.4
2014-Nov-08 13:33N 40°58' E 028°57'12 9.5
2014-Nov-08 12:20N 41°09' E 029°04'7 8.9
2014-Nov-08 11:33N 41°15' E 029°06'  
Track history (hours):
 
Tides and Currents Weather Stations Pressure Air Temp Water Temp Dewpoint Dewpoint Depression Visibility Wind Speed Wind Dir Waves Ship Positions

Beltdiep

Last reported at 2014-Nov-17 21:18 UTC. Time now 2014-Nov-26 04:13 UTC.
Position N 38°09' W 009°39'.
Warning: this ship's position is 8 days out of date.

Length 107 m; draft 5.3 m.

Type: Cargo ship. MMSI: 246671000.

Date/timePositionNaut miles runAvg speedWind from/ knotsBaromVisibWave heightAir tempDewpointWater temp
2014-Nov-17 21:18N 38°09' W 009°39'7 9.6
2014-Nov-17 20:32N 38°02' W 009°38'1010.0
2014-Nov-17 19:31N 37°52' W 009°35'10 9.9
2014-Nov-17 18:32N 37°43' W 009°32'71 8.9
2014-Nov-17 10:33N 36°41' W 008°49'13 9.7
2014-Nov-17 09:11N 36°38' W 008°33'156 9.9
2014-Nov-16 17:26N 36°01' W 005°25'6 7.2
2014-Nov-16 16:33N 36°03' W 005°17'  
2014-Nov-12 14:31N 38°14' E 012°57'  
2014-Nov-10 09:33N 36°50' E 023°34'3811.2
2014-Nov-10 06:09N 37°23' E 023°60'711.0
2014-Nov-10 05:30N 37°28' E 024°06'2311.0
2014-Nov-10 03:25N 37°47' E 024°23'27210.5
2014-Nov-09 01:33N 40°54' E 028°38'1111.3
2014-Nov-09 00:33N 40°56' E 028°52'3 3.3
2014-Nov-08 23:30N 40°58' E 028°56'0 0.0
2014-Nov-08 22:30N 40°58' E 028°56'0 0.0
2014-Nov-08 21:17N 40°58' E 028°56'0 0.0
2014-Nov-08 20:29N 40°58' E 028°56'0 0.1
2014-Nov-08 19:32N 40°58' E 028°56'0 0.0
2014-Nov-08 18:31N 40°58' E 028°56'0 0.0
2014-Nov-08 17:13N 40°58' E 028°56'0 0.0
2014-Nov-08 15:24N 40°58' E 028°56'1 0.4
2014-Nov-08 13:33N 40°58' E 028°57'12 9.5
2014-Nov-08 12:20N 41°09' E 029°04'7 8.9
2014-Nov-08 11:33N 41°15' E 029°06'  

Dump ship's entire track history